createdAt,value
2024-05-09T00:00:48.837Z,0
2024-05-09T00:01:48.806Z,0
2024-05-09T00:02:48.823Z,0
2024-05-09T00:03:49.024Z,0
2024-05-09T00:04:48.868Z,0
2024-05-09T00:05:48.857Z,0
2024-05-09T00:06:48.912Z,0
2024-05-09T00:07:48.999Z,0
2024-05-09T00:08:48.959Z,0
2024-05-09T00:09:49.003Z,0
2024-05-09T00:10:48.977Z,0
2024-05-09T00:11:49.140Z,0
2024-05-09T00:12:49.136Z,0
2024-05-09T00:13:49.063Z,0
2024-05-09T00:14:49.117Z,0
2024-05-09T00:17:49.090Z,0
2024-05-09T00:18:49.293Z,0
2024-05-09T00:19:49.264Z,0
2024-05-09T00:20:49.280Z,0
2024-05-09T00:21:49.090Z,0
2024-05-09T00:22:49.201Z,0
2024-05-09T00:23:49.135Z,0
2024-05-09T00:24:49.340Z,0
2024-05-09T00:25:49.159Z,0
2024-05-09T00:26:49.315Z,0
2024-05-09T00:27:49.510Z,0
2024-05-09T00:28:49.205Z,0
2024-05-09T00:29:49.318Z,0
2024-05-09T00:30:49.266Z,0
2024-05-09T00:31:49.206Z,0
2024-05-09T00:32:49.459Z,0
2024-05-09T00:34:49.344Z,0
2024-05-09T00:35:49.317Z,0
2024-05-09T00:36:49.370Z,0
2024-05-09T00:39:49.400Z,0
2024-05-09T00:40:49.484Z,0
2024-05-09T00:41:49.287Z,0
2024-05-09T00:43:49.280Z,0
2024-05-09T00:44:49.257Z,0
2024-05-09T00:45:49.383Z,0
2024-05-09T00:46:49.477Z,0
2024-05-09T00:47:49.531Z,0
2024-05-09T00:48:49.522Z,0
2024-05-09T00:49:49.481Z,0
2024-05-09T00:50:49.523Z,0
2024-05-09T00:51:49.604Z,0
2024-05-09T00:52:49.661Z,0
2024-05-09T00:53:49.508Z,0
2024-05-09T00:54:49.495Z,0
2024-05-09T00:55:49.623Z,0
2024-05-09T00:56:49.710Z,0
2024-05-09T00:57:49.631Z,0
2024-05-09T00:59:49.491Z,0
2024-05-09T01:00:49.553Z,0
2024-05-09T01:01:49.511Z,0
2024-05-09T01:02:49.898Z,0
2024-05-09T01:03:51.163Z,0
2024-05-09T01:04:50.818Z,0
2024-05-09T01:05:49.658Z,0
2024-05-09T01:06:49.601Z,0
2024-05-09T01:09:49.577Z,0
2024-05-09T01:10:49.947Z,0
2024-05-09T01:11:49.737Z,0
2024-05-09T01:12:49.742Z,0
2024-05-09T01:15:49.725Z,0
2024-05-09T01:16:49.716Z,0
2024-05-09T01:17:49.888Z,0
2024-05-09T01:18:49.809Z,0
2024-05-09T01:19:49.722Z,0
2024-05-09T01:20:49.966Z,0
2024-05-09T01:23:49.819Z,0
2024-05-09T01:24:49.567Z,0
2024-05-09T01:25:49.798Z,0
2024-05-09T01:26:49.788Z,0
2024-05-09T01:27:49.650Z,0
2024-05-09T01:28:49.714Z,0
2024-05-09T01:29:49.556Z,0
2024-05-09T01:30:49.835Z,0
2024-05-09T01:31:49.972Z,0
2024-05-09T01:33:49.891Z,0
2024-05-09T01:34:49.700Z,0
2024-05-09T01:35:49.739Z,0
2024-05-09T01:36:49.644Z,0
2024-05-09T01:37:49.720Z,0
2024-05-09T01:38:49.783Z,0
2024-05-09T01:39:49.887Z,0
2024-05-09T01:40:49.760Z,0
2024-05-09T01:41:49.915Z,0
2024-05-09T01:42:49.679Z,0
2024-05-09T01:43:49.782Z,0
2024-05-09T01:44:49.949Z,0
2024-05-09T01:46:49.868Z,0
2024-05-09T01:47:49.951Z,0
2024-05-09T01:48:50.019Z,0
2024-05-09T01:49:49.910Z,0
2024-05-09T01:50:49.935Z,0
2024-05-09T01:51:50.144Z,0
2024-05-09T01:52:50.062Z,0
2024-05-09T01:55:50.026Z,0
2024-05-09T01:56:50.121Z,0
2024-05-09T01:59:49.923Z,0
2024-05-09T02:00:50.140Z,0
2024-05-09T02:01:55.162Z,0
2024-05-09T02:02:51.249Z,0
2024-05-09T02:03:50.513Z,0
2024-05-09T02:04:50.377Z,0
2024-05-09T02:05:50.280Z,0
2024-05-09T02:06:50.050Z,0
2024-05-09T02:07:50.076Z,0
2024-05-09T02:08:50.154Z,0
2024-05-09T02:09:50.304Z,0
2024-05-09T02:10:50.825Z,0
2024-05-09T02:11:50.327Z,0
2024-05-09T02:12:50.168Z,0
2024-05-09T02:13:50.148Z,0
2024-05-09T02:14:50.247Z,0
2024-05-09T02:16:50.121Z,0
2024-05-09T02:17:50.545Z,0
2024-05-09T02:18:50.303Z,0
2024-05-09T02:20:50.307Z,0
2024-05-09T02:23:50.277Z,0
2024-05-09T02:24:50.220Z,0
2024-05-09T02:26:50.300Z,0
2024-05-09T02:27:50.310Z,0
2024-05-09T02:30:50.198Z,0
2024-05-09T02:31:50.471Z,0
2024-05-09T02:32:50.392Z,0
2024-05-09T02:35:50.408Z,0
2024-05-09T02:36:50.209Z,0
2024-05-09T02:37:50.386Z,0
2024-05-09T02:39:50.162Z,0
2024-05-09T02:40:50.419Z,0
2024-05-09T02:42:50.349Z,0
2024-05-09T02:43:50.417Z,0
2024-05-09T02:44:50.257Z,0
2024-05-09T02:45:50.336Z,0
2024-05-09T02:46:50.294Z,0
2024-05-09T02:47:50.418Z,0
2024-05-09T02:48:50.685Z,0
2024-05-09T02:49:50.389Z,0
2024-05-09T02:50:50.381Z,0
2024-05-09T02:51:50.470Z,0
2024-05-09T02:52:50.516Z,0
2024-05-09T02:54:50.394Z,0
2024-05-09T02:55:50.482Z,0
2024-05-09T02:56:50.422Z,0
2024-05-09T02:57:50.554Z,0
2024-05-09T02:58:50.537Z,0
2024-05-09T02:59:50.480Z,0
2024-05-09T03:00:50.505Z,0
2024-05-09T03:01:50.429Z,0
2024-05-09T03:02:50.561Z,0
2024-05-09T03:03:50.669Z,0
2024-05-09T03:04:50.669Z,0
2024-05-09T03:05:50.694Z,0
2024-05-09T03:06:50.583Z,0
2024-05-09T03:07:50.742Z,0
2024-05-09T03:08:50.755Z,0
2024-05-09T03:10:50.574Z,0
2024-05-09T03:11:50.772Z,0
2024-05-09T03:12:50.725Z,0
2024-05-09T03:13:50.676Z,0
2024-05-09T03:14:50.808Z,0
2024-05-09T03:17:50.746Z,0
2024-05-09T03:18:50.748Z,0
2024-05-09T03:19:50.959Z,0
2024-05-09T03:20:50.604Z,0
2024-05-09T03:21:50.627Z,0
2024-05-09T03:22:51.643Z,0
2024-05-09T03:23:51.823Z,0
2024-05-09T03:24:50.816Z,0
2024-05-09T03:25:50.984Z,0
2024-05-09T03:26:50.733Z,0
2024-05-09T03:27:50.825Z,0
2024-05-09T03:28:50.827Z,0
2024-05-09T03:29:50.903Z,0
2024-05-09T03:30:50.913Z,0
2024-05-09T03:31:50.877Z,0
2024-05-09T03:32:50.894Z,0
2024-05-09T03:33:51.080Z,0
2024-05-09T03:34:50.959Z,0
2024-05-09T03:35:50.972Z,0
2024-05-09T03:36:51.999Z,0
2024-05-09T03:37:50.907Z,0
2024-05-09T03:40:51.101Z,0
2024-05-09T03:41:50.844Z,0
2024-05-09T03:42:50.970Z,0
2024-05-09T03:43:50.906Z,0
2024-05-09T03:44:51.276Z,0
2024-05-09T03:45:50.976Z,0
2024-05-09T03:46:51.145Z,0
2024-05-09T03:47:51.022Z,0
2024-05-09T03:48:51.073Z,0
2024-05-09T03:49:51.023Z,0
2024-05-09T03:50:51.146Z,0
2024-05-09T03:51:50.987Z,0
2024-05-09T03:52:51.082Z,5.625
2024-05-09T03:53:51.140Z,5.625
2024-05-09T03:56:51.151Z,5.625
2024-05-09T03:57:51.014Z,5.625
2024-05-09T03:58:51.297Z,5.625
2024-05-09T03:59:50.988Z,5.625
2024-05-09T04:00:51.122Z,5.625
2024-05-09T04:02:51.162Z,5.625
2024-05-09T04:03:51.453Z,5.625
2024-05-09T04:05:51.413Z,5.625
2024-05-09T04:06:51.291Z,5.625
2024-05-09T04:07:51.188Z,11.25
2024-05-09T04:08:51.216Z,11.25
2024-05-09T04:11:51.358Z,11.25
2024-05-09T04:12:51.289Z,11.25
2024-05-09T04:13:51.524Z,11.25
2024-05-09T04:14:51.233Z,11.25
2024-05-09T04:15:51.264Z,11.25
2024-05-09T04:16:51.600Z,11.25
2024-05-09T04:17:51.785Z,11.25
2024-05-09T04:18:51.610Z,11.25
2024-05-09T04:19:51.223Z,11.25
2024-05-09T04:20:51.435Z,11.25
2024-05-09T04:21:51.341Z,11.25
2024-05-09T04:22:51.510Z,11.25
2024-05-09T04:24:51.364Z,16.875
2024-05-09T04:25:51.581Z,16.875
2024-05-09T04:26:51.480Z,16.875
2024-05-09T04:27:51.445Z,16.875
2024-05-09T04:28:51.494Z,16.875
2024-05-09T04:29:51.315Z,16.875
2024-05-09T04:30:51.442Z,16.875
2024-05-09T04:31:51.729Z,16.875
2024-05-09T04:32:51.311Z,16.875
2024-05-09T04:33:51.561Z,16.875
2024-05-09T04:34:51.409Z,16.875
2024-05-09T04:35:51.561Z,16.875
2024-05-09T04:36:51.443Z,16.875
2024-05-09T04:37:51.420Z,22.5
2024-05-09T04:38:51.395Z,22.5
2024-05-09T04:39:51.389Z,22.5
2024-05-09T04:40:51.515Z,22.5
2024-05-09T04:41:51.481Z,22.5
2024-05-09T04:42:51.463Z,22.5
2024-05-09T04:43:51.371Z,22.5
2024-05-09T04:44:52.488Z,22.5
2024-05-09T04:45:52.491Z,22.5
2024-05-09T04:46:51.786Z,22.5
2024-05-09T04:48:51.628Z,22.5
2024-05-09T04:51:51.512Z,22.5
2024-05-09T04:52:51.624Z,28.125
2024-05-09T04:53:51.534Z,28.125
2024-05-09T04:54:51.467Z,28.125
2024-05-09T04:57:51.601Z,28.125
2024-05-09T04:58:51.810Z,28.125
2024-05-09T05:00:51.673Z,28.125
2024-05-09T05:01:52.688Z,28.125
2024-05-09T05:02:51.819Z,28.125
2024-05-09T05:03:51.927Z,28.125
2024-05-09T05:04:51.863Z,28.125
2024-05-09T05:05:52.715Z,28.125
2024-05-09T05:06:51.835Z,28.125
2024-05-09T05:08:51.597Z,28.125
2024-05-09T05:09:51.696Z,28.125
2024-05-09T05:10:51.999Z,33.75
2024-05-09T05:11:51.709Z,33.75
2024-05-09T05:12:51.782Z,33.75
2024-05-09T05:13:51.840Z,33.75
2024-05-09T05:14:51.815Z,33.75
2024-05-09T05:15:52.014Z,33.75
2024-05-09T05:16:51.896Z,33.75
2024-05-09T05:17:52.098Z,33.75
2024-05-09T05:18:51.895Z,33.75
2024-05-09T05:19:51.974Z,33.75
2024-05-09T05:20:51.993Z,33.75
2024-05-09T05:21:51.937Z,33.75
2024-05-09T05:22:52.014Z,33.75
2024-05-09T05:23:51.977Z,33.75
2024-05-09T05:24:51.911Z,33.75
2024-05-09T05:25:52.086Z,33.75
2024-05-09T05:26:51.915Z,33.75
2024-05-09T05:27:51.944Z,33.75
2024-05-09T05:28:51.887Z,33.75
2024-05-09T05:29:51.902Z,33.75
2024-05-09T05:30:51.961Z,33.75
2024-05-09T05:31:51.973Z,33.75
2024-05-09T05:32:52.070Z,33.75
2024-05-09T05:33:52.059Z,33.75
2024-05-09T05:34:52.082Z,33.75
2024-05-09T05:35:51.887Z,33.75
2024-05-09T05:36:51.933Z,33.75
2024-05-09T05:37:52.117Z,33.75
2024-05-09T05:38:51.984Z,33.75
2024-05-09T05:39:51.911Z,33.75
2024-05-09T05:40:51.883Z,33.75
2024-05-09T05:41:52.088Z,33.75
2024-05-09T05:42:52.140Z,33.75
2024-05-09T05:43:52.122Z,33.75
2024-05-09T05:44:52.016Z,33.75
2024-05-09T05:45:52.162Z,33.75
2024-05-09T05:46:52.127Z,33.75
2024-05-09T05:47:52.512Z,33.75
2024-05-09T05:48:52.269Z,33.75
2024-05-09T05:49:52.122Z,33.75
2024-05-09T05:50:52.178Z,33.75
2024-05-09T05:51:52.075Z,33.75
2024-05-09T05:52:52.053Z,33.75
2024-05-09T05:53:52.065Z,33.75
2024-05-09T05:56:52.291Z,33.75
2024-05-09T05:57:52.233Z,33.75
2024-05-09T05:58:52.409Z,33.75
2024-05-09T05:59:52.143Z,33.75
2024-05-09T06:00:53.245Z,33.75
2024-05-09T06:01:52.339Z,39.375
2024-05-09T06:02:52.307Z,39.375
2024-05-09T06:03:52.367Z,39.375
2024-05-09T06:04:52.300Z,39.375
2024-05-09T06:05:52.187Z,39.375
2024-05-09T06:06:52.337Z,39.375
2024-05-09T06:09:52.290Z,39.375
2024-05-09T06:10:52.430Z,39.375
2024-05-09T06:11:52.408Z,39.375
2024-05-09T06:13:52.342Z,39.375
2024-05-09T06:14:52.288Z,39.375
2024-05-09T06:15:52.392Z,39.375
2024-05-09T06:16:54.090Z,39.375
2024-05-09T06:17:53.409Z,39.375
2024-05-09T06:18:52.725Z,39.375
2024-05-09T06:19:52.565Z,39.375
2024-05-09T06:20:52.710Z,39.375
2024-05-09T06:21:52.426Z,39.375
2024-05-09T06:22:52.619Z,39.375
2024-05-09T06:23:52.564Z,39.375
2024-05-09T06:24:52.500Z,39.375
2024-05-09T06:27:52.489Z,39.375
2024-05-09T06:28:52.746Z,39.375
2024-05-09T06:30:52.613Z,39.375
2024-05-09T06:31:52.597Z,39.375
2024-05-09T06:32:52.807Z,39.375
2024-05-09T06:33:52.855Z,39.375
2024-05-09T06:34:52.661Z,39.375
2024-05-09T06:35:52.806Z,39.375
2024-05-09T06:37:52.686Z,39.375
2024-05-09T06:38:52.716Z,39.375
2024-05-09T06:39:52.632Z,39.375
2024-05-09T06:40:52.731Z,39.375
2024-05-09T06:41:52.803Z,39.375
2024-05-09T06:43:52.872Z,39.375
2024-05-09T06:44:52.919Z,39.375
2024-05-09T06:45:53.079Z,39.375
2024-05-09T06:46:53.637Z,39.375
2024-05-09T06:47:54.607Z,39.375
2024-05-09T06:48:53.054Z,39.375
2024-05-09T06:49:53.141Z,39.375
2024-05-09T06:51:52.832Z,39.375
2024-05-09T06:54:52.948Z,39.375
2024-05-09T06:55:53.141Z,39.375
2024-05-09T06:56:52.852Z,39.375
2024-05-09T06:57:52.928Z,33.75
2024-05-09T06:58:53.018Z,39.375
2024-05-09T06:59:53.032Z,39.375
2024-05-09T07:00:52.917Z,39.375
2024-05-09T07:01:52.847Z,39.375
2024-05-09T07:02:53.095Z,39.375
2024-05-09T07:03:53.180Z,39.375
2024-05-09T07:04:53.255Z,39.375
2024-05-09T07:05:53.006Z,39.375
2024-05-09T07:06:52.916Z,39.375
2024-05-09T07:07:53.013Z,39.375
2024-05-09T07:08:53.019Z,39.375
2024-05-09T07:11:53.051Z,39.375
2024-05-09T07:12:53.105Z,39.375
2024-05-09T07:13:53.052Z,39.375
2024-05-09T07:16:53.176Z,39.375
2024-05-09T07:17:53.083Z,39.375
2024-05-09T07:18:53.171Z,39.375
2024-05-09T07:19:53.100Z,39.375
2024-05-09T07:20:53.214Z,39.375
2024-05-09T07:21:53.146Z,39.375
2024-05-09T07:23:53.129Z,39.375
2024-05-09T07:24:52.989Z,39.375
2024-05-09T07:25:53.069Z,39.375
2024-05-09T07:26:53.166Z,39.375
2024-05-09T07:28:52.995Z,39.375
2024-05-09T07:29:53.106Z,39.375
2024-05-09T07:30:53.266Z,39.375
2024-05-09T07:31:53.188Z,39.375
2024-05-09T07:32:53.352Z,39.375
2024-05-09T07:33:53.201Z,39.375
2024-05-09T07:34:53.242Z,39.375
2024-05-09T07:35:53.439Z,39.375
2024-05-09T07:36:53.195Z,39.375
2024-05-09T07:37:53.374Z,39.375
2024-05-09T07:38:53.306Z,39.375
2024-05-09T07:40:53.373Z,39.375
2024-05-09T07:41:53.331Z,39.375
2024-05-09T07:42:53.383Z,39.375
2024-05-09T07:43:53.221Z,45
2024-05-09T07:44:53.264Z,45
2024-05-09T07:45:54.507Z,45
2024-05-09T07:47:36.392Z,45
2024-05-09T07:50:35.794Z,45
2024-05-09T07:51:47.571Z,45
2024-05-09T07:52:49.386Z,45
2024-05-09T07:53:55.937Z,45
2024-05-09T07:54:54.552Z,45
2024-05-09T07:55:53.440Z,45
2024-05-09T07:56:53.471Z,45
2024-05-09T07:57:53.349Z,45
2024-05-09T07:58:53.703Z,45
2024-05-09T07:59:53.314Z,45
2024-05-09T08:00:53.442Z,45
2024-05-09T08:01:53.612Z,45
2024-05-09T08:02:53.394Z,45
2024-05-09T08:03:53.539Z,45
2024-05-09T08:04:53.459Z,45
2024-05-09T08:05:53.532Z,45
2024-05-09T08:06:53.448Z,45
2024-05-09T08:07:53.372Z,45
2024-05-09T08:08:53.295Z,45
2024-05-09T08:09:53.525Z,45
2024-05-09T08:12:53.525Z,45
2024-05-09T08:13:53.611Z,45
2024-05-09T08:14:53.336Z,45
2024-05-09T08:15:53.510Z,45
2024-05-09T08:16:53.514Z,45
2024-05-09T08:17:53.713Z,45
2024-05-09T08:18:53.578Z,45
2024-05-09T08:19:53.597Z,45
2024-05-09T08:21:53.571Z,45
2024-05-09T08:22:53.639Z,45
2024-05-09T08:23:53.351Z,50.625
2024-05-09T08:24:53.568Z,50.625
2024-05-09T08:25:53.512Z,50.625
2024-05-09T08:26:53.505Z,50.625
2024-05-09T08:27:53.503Z,50.625
2024-05-09T08:28:53.394Z,50.625
2024-05-09T08:29:53.586Z,50.625
2024-05-09T08:30:53.793Z,50.625
2024-05-09T08:31:53.986Z,50.625
2024-05-09T08:32:53.704Z,50.625
2024-05-09T08:33:53.686Z,50.625
2024-05-09T08:34:53.651Z,50.625
2024-05-09T08:35:53.735Z,50.625
2024-05-09T08:36:54.162Z,50.625
2024-05-09T08:37:54.659Z,50.625
2024-05-09T08:39:53.773Z,50.625
2024-05-09T08:40:53.820Z,50.625
2024-05-09T08:41:53.697Z,50.625
2024-05-09T08:42:53.986Z,50.625
2024-05-09T08:43:53.916Z,56.25
2024-05-09T08:45:53.878Z,50.625
2024-05-09T08:46:53.794Z,50.625
2024-05-09T08:47:53.893Z,50.625
2024-05-09T08:49:53.776Z,56.25
2024-05-09T08:50:54.016Z,56.25
2024-05-09T08:51:53.974Z,50.625
2024-05-09T08:52:53.919Z,50.625
2024-05-09T08:55:53.910Z,56.25
2024-05-09T08:56:53.987Z,56.25
2024-05-09T08:58:53.947Z,56.25
2024-05-09T08:59:53.847Z,56.25
2024-05-09T09:00:53.929Z,56.25
2024-05-09T09:01:54.216Z,56.25
2024-05-09T09:02:54.200Z,56.25
2024-05-09T09:03:54.162Z,56.25
2024-05-09T09:04:54.267Z,56.25
2024-05-09T09:05:54.148Z,56.25
2024-05-09T09:06:56.537Z,56.25
2024-05-09T09:07:55.024Z,56.25
2024-05-09T09:08:53.935Z,56.25
2024-05-09T09:09:55.206Z,61.875
2024-05-09T09:10:54.014Z,61.875
2024-05-09T09:11:54.003Z,61.875
2024-05-09T09:12:54.255Z,61.875
2024-05-09T09:13:54.117Z,61.875
2024-05-09T09:15:54.026Z,61.875
2024-05-09T09:19:54.387Z,61.875
2024-05-09T09:20:54.159Z,61.875
2024-05-09T09:21:54.208Z,61.875
2024-05-09T09:22:54.279Z,61.875
2024-05-09T09:23:54.163Z,61.875
2024-05-09T09:25:54.049Z,61.875
2024-05-09T09:26:54.310Z,61.875
2024-05-09T09:27:54.326Z,61.875
2024-05-09T09:28:54.734Z,61.875
2024-05-09T09:29:54.089Z,61.875
2024-05-09T09:30:54.267Z,67.5
2024-05-09T09:31:54.293Z,67.5
2024-05-09T09:32:54.357Z,61.875
2024-05-09T09:33:54.454Z,67.5
2024-05-09T09:34:54.464Z,67.5
2024-05-09T09:36:54.288Z,67.5
2024-05-09T09:37:54.605Z,67.5
2024-05-09T09:39:54.366Z,67.5
2024-05-09T09:40:54.231Z,67.5
2024-05-09T09:41:54.230Z,67.5
2024-05-09T09:42:54.381Z,67.5
2024-05-09T09:43:54.243Z,67.5
2024-05-09T09:44:58.108Z,67.5
2024-05-09T09:45:55.573Z,67.5
2024-05-09T09:46:54.548Z,67.5
2024-05-09T09:47:54.508Z,67.5
2024-05-09T09:48:54.582Z,67.5
2024-05-09T09:50:54.453Z,67.5
2024-05-09T09:51:54.527Z,67.5
2024-05-09T09:52:54.609Z,67.5
2024-05-09T09:53:54.574Z,67.5
2024-05-09T09:54:54.531Z,67.5
2024-05-09T09:57:54.548Z,67.5
2024-05-09T09:58:55.769Z,67.5
2024-05-09T09:59:54.501Z,67.5
2024-05-09T10:00:54.748Z,67.5
2024-05-09T10:01:54.613Z,67.5
2024-05-09T10:02:54.526Z,67.5
2024-05-09T10:03:54.866Z,67.5
2024-05-09T10:04:54.603Z,67.5
2024-05-09T10:05:54.705Z,67.5
2024-05-09T10:06:55.000Z,67.5
2024-05-09T10:07:54.592Z,67.5
2024-05-09T10:08:54.674Z,67.5
2024-05-09T10:09:54.709Z,67.5
2024-05-09T10:10:55.047Z,67.5
2024-05-09T10:11:59.498Z,67.5
2024-05-09T10:12:55.695Z,73.125
2024-05-09T10:13:54.658Z,73.125
2024-05-09T10:14:54.843Z,73.125
2024-05-09T10:15:54.894Z,73.125
2024-05-09T10:16:54.849Z,73.125
2024-05-09T10:17:55.070Z,73.125
2024-05-09T10:18:54.953Z,73.125
2024-05-09T10:19:54.891Z,73.125
2024-05-09T10:22:54.757Z,73.125
2024-05-09T10:23:54.854Z,73.125
2024-05-09T10:24:55.039Z,73.125
2024-05-09T10:25:54.853Z,73.125
2024-05-09T10:26:55.520Z,78.75
2024-05-09T10:27:54.998Z,78.75
2024-05-09T10:28:55.023Z,78.75
2024-05-09T10:29:54.921Z,78.75
2024-05-09T10:30:54.917Z,78.75
2024-05-09T10:31:54.855Z,78.75
2024-05-09T10:32:54.862Z,78.75
2024-05-09T10:33:55.271Z,78.75
2024-05-09T10:34:55.387Z,78.75
2024-05-09T10:35:54.967Z,78.75
2024-05-09T10:36:55.339Z,84.375
2024-05-09T10:37:55.052Z,84.375
2024-05-09T10:38:55.084Z,84.375
2024-05-09T10:39:55.133Z,84.375
2024-05-09T10:40:55.152Z,84.375
2024-05-09T10:41:55.123Z,84.375
2024-05-09T10:42:55.112Z,84.375
2024-05-09T10:43:55.244Z,84.375
2024-05-09T10:44:56.796Z,84.375
2024-05-09T10:45:55.224Z,84.375
2024-05-09T10:46:56.015Z,90
2024-05-09T10:47:55.189Z,90
2024-05-09T10:48:55.051Z,90
2024-05-09T10:49:55.045Z,90
2024-05-09T10:50:55.303Z,90
2024-05-09T10:51:54.959Z,90
2024-05-09T10:52:54.919Z,90
2024-05-09T10:53:55.005Z,90
2024-05-09T10:54:55.184Z,90
2024-05-09T10:55:55.330Z,90
2024-05-09T10:56:55.417Z,95.625
2024-05-09T10:57:55.251Z,95.625
2024-05-09T10:58:55.091Z,95.625
2024-05-09T10:59:55.149Z,95.625
2024-05-09T11:00:55.419Z,95.625
2024-05-09T11:02:55.188Z,95.625
2024-05-09T11:03:55.225Z,95.625
2024-05-09T11:04:55.393Z,95.625
2024-05-09T11:05:55.308Z,95.625
2024-05-09T11:06:55.441Z,95.625
2024-05-09T11:07:55.179Z,101.25
2024-05-09T11:08:55.404Z,101.25
2024-05-09T11:11:55.317Z,106.875
2024-05-09T11:12:55.269Z,101.25
2024-05-09T11:13:55.398Z,106.875
2024-05-09T11:14:55.346Z,101.25
2024-05-09T11:15:55.457Z,101.25
2024-05-09T11:16:55.391Z,106.875
2024-05-09T11:17:55.348Z,106.875
2024-05-09T11:18:55.642Z,106.875
2024-05-09T11:19:55.257Z,106.875
2024-05-09T11:20:55.336Z,112.5
2024-05-09T11:21:55.475Z,112.5
2024-05-09T11:22:55.347Z,112.5
2024-05-09T11:26:55.492Z,106.875
2024-05-09T11:27:55.396Z,106.875
2024-05-09T11:28:55.472Z,112.5
2024-05-09T11:29:55.570Z,135
2024-05-09T11:30:55.547Z,140.625
2024-05-09T11:31:55.505Z,135
2024-05-09T11:32:55.767Z,135
2024-05-09T11:33:55.502Z,140.625
2024-05-09T11:37:55.493Z,168.75
2024-05-09T11:38:55.463Z,180
2024-05-09T11:39:55.636Z,185.625
2024-05-09T11:40:55.507Z,168.75
2024-05-09T11:41:55.608Z,157.5
2024-05-09T11:42:55.922Z,168.75
2024-05-09T11:43:55.483Z,185.625
2024-05-09T11:44:55.549Z,196.875
2024-05-09T11:45:56.327Z,219.375
2024-05-09T11:46:56.394Z,180
2024-05-09T11:47:55.995Z,146.25
2024-05-09T11:48:55.856Z,135
2024-05-09T11:49:56.127Z,135
2024-05-09T11:50:55.814Z,146.25
2024-05-09T11:51:56.996Z,163.125
2024-05-09T11:53:56.372Z,236.25
2024-05-09T11:54:56.173Z,191.25
2024-05-09T11:57:56.628Z,686.25
2024-05-09T11:58:56.053Z,270
2024-05-09T11:59:56.232Z,241.875
2024-05-09T12:01:56.066Z,236.25
2024-05-09T12:02:56.073Z,585
2024-05-09T12:03:56.205Z,416.25
2024-05-09T12:04:56.056Z,1096.875
2024-05-09T12:07:55.979Z,264.375
2024-05-09T12:08:56.330Z,253.125
2024-05-09T12:09:56.394Z,230.625
2024-05-09T12:10:56.806Z,208.125
2024-05-09T12:11:57.261Z,191.25
2024-05-09T12:14:56.030Z,185.625
2024-05-09T12:15:56.059Z,196.875
2024-05-09T12:16:56.154Z,225
2024-05-09T12:18:56.108Z,230.625
2024-05-09T12:19:56.128Z,196.875
2024-05-09T12:20:56.160Z,185.625
2024-05-09T12:21:56.209Z,180
2024-05-09T12:22:56.217Z,168.75
2024-05-09T12:23:56.022Z,196.875
2024-05-09T12:24:56.389Z,230.625
2024-05-09T12:27:56.252Z,230.625
2024-05-09T12:28:57.109Z,236.25
2024-05-09T12:29:56.634Z,236.25
2024-05-09T12:30:57.212Z,236.25
2024-05-09T12:31:57.026Z,241.875
2024-05-09T12:32:56.706Z,253.125
2024-05-09T12:35:56.428Z,320.625
2024-05-09T12:36:56.248Z,382.5
2024-05-09T12:37:56.290Z,950.625
2024-05-09T12:38:56.266Z,1046.25
2024-05-09T12:39:56.581Z,551.25
2024-05-09T12:44:57.206Z,1102.5
2024-05-09T12:45:57.220Z,1091.25
2024-05-09T12:46:56.402Z,1051.875
2024-05-09T12:47:57.249Z,1051.875
2024-05-09T12:48:56.608Z,1085.625
2024-05-09T12:49:56.683Z,1068.75
2024-05-09T12:50:56.344Z,1068.75
2024-05-09T12:51:56.561Z,1085.625
2024-05-09T12:54:56.272Z,1046.25
2024-05-09T12:55:57.171Z,1040.625
2024-05-09T12:56:57.495Z,1051.875
2024-05-09T12:57:56.644Z,1063.125
2024-05-09T13:00:56.750Z,1012.5
2024-05-09T13:01:58.034Z,1102.5
2024-05-09T13:02:58.300Z,742.5
2024-05-09T13:03:57.549Z,838.125
2024-05-09T13:04:56.563Z,1046.25
2024-05-09T13:05:56.590Z,900
2024-05-09T13:07:56.991Z,725.625
2024-05-09T13:08:56.474Z,933.75
2024-05-09T13:10:56.283Z,973.125
2024-05-09T13:11:56.425Z,922.5
2024-05-09T13:14:56.376Z,922.5
2024-05-09T13:15:56.487Z,922.5
2024-05-09T13:17:58.243Z,900
2024-05-09T13:18:57.510Z,905.625
2024-05-09T13:23:57.579Z,877.5
2024-05-09T13:24:57.501Z,776.25
2024-05-09T13:25:56.538Z,326.25
2024-05-09T13:26:56.595Z,230.625
2024-05-09T13:27:56.813Z,247.5
2024-05-09T13:28:56.864Z,309.375
2024-05-09T13:29:56.606Z,646.875
2024-05-09T13:30:56.727Z,871.875
2024-05-09T13:31:56.588Z,832.5
2024-05-09T13:34:56.550Z,838.125
2024-05-09T13:35:56.655Z,832.5
2024-05-09T13:36:56.649Z,810
2024-05-09T13:38:56.684Z,787.5
2024-05-09T13:39:56.746Z,776.25
2024-05-09T13:40:56.731Z,765
2024-05-09T13:41:56.723Z,759.375
2024-05-09T13:44:56.883Z,748.125
2024-05-09T13:45:56.753Z,731.25
2024-05-09T13:46:56.731Z,720
2024-05-09T13:47:56.928Z,714.375
2024-05-09T13:48:56.759Z,708.75
2024-05-09T13:49:56.874Z,714.375
2024-05-09T13:50:56.718Z,697.5
2024-05-09T13:51:56.856Z,686.25
2024-05-09T13:52:56.786Z,697.5
2024-05-09T13:55:56.934Z,708.75
2024-05-09T13:56:56.713Z,708.75
2024-05-09T13:57:56.911Z,697.5
2024-05-09T13:58:56.910Z,703.125
2024-05-09T13:59:56.837Z,708.75
2024-05-09T14:00:57.144Z,697.5
2024-05-09T14:01:56.963Z,686.25
2024-05-09T14:03:57.042Z,675
2024-05-09T14:04:57.168Z,675
2024-05-09T14:05:57.135Z,663.75
2024-05-09T14:07:56.900Z,596.25
2024-05-09T14:08:56.848Z,658.125
2024-05-09T14:09:56.906Z,652.5
2024-05-09T14:12:56.943Z,545.625
2024-05-09T14:13:56.962Z,658.125
2024-05-09T14:14:56.964Z,697.5
2024-05-09T14:15:57.130Z,596.25
2024-05-09T14:16:56.965Z,241.875
2024-05-09T14:19:57.118Z,213.75
2024-05-09T14:20:56.893Z,208.125
2024-05-09T14:21:57.297Z,551.25
2024-05-09T14:22:57.018Z,635.625
2024-05-09T14:23:57.980Z,618.75
2024-05-09T14:24:57.267Z,618.75
2024-05-09T14:25:57.286Z,613.125
2024-05-09T14:26:57.032Z,613.125
2024-05-09T14:27:57.256Z,618.75
2024-05-09T14:29:57.148Z,624.375
2024-05-09T14:30:57.256Z,624.375
2024-05-09T14:31:57.433Z,624.375
2024-05-09T14:32:57.231Z,613.125
2024-05-09T14:33:57.484Z,613.125
2024-05-09T14:34:57.027Z,613.125
2024-05-09T14:35:57.102Z,613.125
2024-05-09T14:36:57.206Z,607.5
2024-05-09T14:37:57.232Z,607.5
2024-05-09T14:38:57.094Z,607.5
2024-05-09T14:41:57.100Z,596.25
2024-05-09T14:42:59.079Z,585
2024-05-09T14:43:58.241Z,590.625
2024-05-09T14:44:57.316Z,590.625
2024-05-09T14:45:57.246Z,590.625
2024-05-09T14:48:57.334Z,579.375
2024-05-09T14:49:57.190Z,573.75
2024-05-09T14:50:57.346Z,573.75
2024-05-09T14:51:57.243Z,568.125
2024-05-09T14:55:00.090Z,562.5
2024-05-09T14:55:58.347Z,556.875
2024-05-09T14:56:57.248Z,562.5
2024-05-09T14:57:57.925Z,562.5
2024-05-09T14:58:58.294Z,556.875
2024-05-09T14:59:57.277Z,556.875
2024-05-09T15:00:57.476Z,556.875
2024-05-09T15:01:57.494Z,556.875
2024-05-09T15:02:57.335Z,556.875
2024-05-09T15:03:57.411Z,551.25
2024-05-09T15:04:57.447Z,551.25
2024-05-09T15:05:57.442Z,551.25
2024-05-09T15:06:57.478Z,551.25
2024-05-09T15:07:57.447Z,551.25
2024-05-09T15:08:57.598Z,556.875
2024-05-09T15:09:57.613Z,545.625
2024-05-09T15:12:57.548Z,540
2024-05-09T15:13:57.537Z,540
2024-05-09T15:14:57.517Z,534.375
2024-05-09T15:15:57.594Z,534.375
2024-05-09T15:16:57.606Z,534.375
2024-05-09T15:17:58.793Z,528.75
2024-05-09T15:19:57.539Z,534.375
2024-05-09T15:20:58.053Z,534.375
2024-05-09T15:22:57.476Z,523.125
2024-05-09T15:23:57.353Z,523.125
2024-05-09T15:24:57.480Z,511.875
2024-05-09T15:25:57.414Z,511.875
2024-05-09T15:26:57.635Z,511.875
2024-05-09T15:30:57.593Z,517.5
2024-05-09T15:31:57.759Z,517.5
2024-05-09T15:32:57.604Z,517.5
2024-05-09T15:33:57.613Z,511.875
2024-05-09T15:34:57.652Z,506.25
2024-05-09T15:35:57.685Z,517.5
2024-05-09T15:36:57.767Z,506.25
2024-05-09T15:37:57.711Z,495
2024-05-09T15:38:58.260Z,489.375
2024-05-09T15:39:57.722Z,478.125
2024-05-09T15:40:57.865Z,433.125
2024-05-09T15:41:57.956Z,466.875
2024-05-09T15:42:57.925Z,405
2024-05-09T15:44:57.761Z,303.75
2024-05-09T15:45:58.016Z,258.75
2024-05-09T15:46:57.923Z,241.875
2024-05-09T15:47:58.079Z,225
2024-05-09T15:48:57.936Z,219.375
2024-05-09T15:49:58.034Z,213.75
2024-05-09T15:50:57.785Z,202.5
2024-05-09T15:51:58.120Z,191.25